Flight Track Log - Related Links

Times and Time Zones

All times are in EDT time to prevent confusion due to time zone crossing. See the DAL403 flight status page for this flight to view local times or setup timezone preferences in your user account.


Time Position Orientation Groundspeed Altitude Reporting Facility
EDT Latitude Longitude Course Direction KTS MPH feet Rate Location/Type
Tue 06:14:23 AM 38.8000 -77.0333 236° Southwest 196 226 1,500  Level Potomac TRACON
Tue 06:15:29 AM 38.7333 -77.0667 201° Southwest 287 330 5,200 3,400 Climbing Potomac TRACON
Tue 06:16:00 AM 38.6336 -77.4370 234° Southwest  Level FlightAware Approximate
Tue 06:16:23 AM 38.7167 -77.1500 256° West 279 321 8,300  Level Potomac TRACON
Tue 06:17:00 AM 38.5752 -77.5830 237° Southwest  Level FlightAware Approximate
Tue 06:17:23 AM 38.7000 -77.2500 258° West 285 328 10,900  Level Potomac TRACON
Tue 06:18:00 AM 38.5000 -77.7166 233° Southwest  Level FlightAware Approximate
Tue 06:18:23 AM 38.6667 -77.3667 250° West 367 422 11,900  Level Potomac TRACON
Tue 06:19:00 AM 38.4242 -77.8481 236° Southwest  Level FlightAware Approximate
Tue 06:19:55 AM 38.5889 -77.5439 241° Southwest 410 472 15,600  Level Washington Center
Tue 06:20:56 AM 38.5328 -77.6672 240° Southwest 410 472 17,900 1,835 Climbing Washington Center
Tue 06:21:56 AM 38.4850 -77.7667 238° Southwest 415 478 19,300 1,487 Climbing Washington Center
Tue 06:22:53 AM 38.4158 -77.9025 237° Southwest 415 478 20,800 1,475 Climbing Washington Center
Tue 06:23:54 AM 38.3464 -78.0353 236° Southwest 435 501 22,200 1,377 Climbing Washington Center
Tue 06:24:55 AM 38.2750 -78.1706 236° Southwest 449 517 23,600 1,250 Climbing Washington Center
Tue 06:25:54 AM 38.2031 -78.3081 236° Southwest 462 532 24,700 1,250 Climbing Washington Center
Tue 06:26:55 AM 38.1311 -78.4453 236° Southwest 470 541 26,100 1,131 Climbing Washington Center
Tue 06:27:56 AM 38.0794 -78.5936 246° West 467 537 27,000 712 Climbing Washington Center
Tue 06:28:53 AM 38.0275 -78.7472 247° West 467 537 27,500 1,311 Climbing Washington Center
Tue 06:29:55 AM 37.9708 -78.9108 246° West 472 543 29,600 1,686 Climbing Washington Center
Tue 06:30:54 AM 37.9208 -79.0561 246° West 472 543 30,900 1,200 Climbing Washington Center
Tue 06:31:55 AM 37.8525 -79.1869 237° Southwest 464 534 32,000 545 Climbing Washington Center
Tue 06:32:55 AM 37.7722 -79.2908 226° Southwest 455 524 32,000  Level Washington Center
Tue 06:33:53 AM 37.6783 -79.4200 227° Southwest 461 531 32,000  Level Washington Center
Tue 06:34:54 AM 37.5933 -79.5339 227° Southwest 461 531 32,000  Level Washington Center
Tue 06:35:55 AM 37.5081 -79.6525 228° Southwest 461 531 32,000  Level Washington Center
Tue 06:36:53 AM 37.4269 -79.7631 227° Southwest 466 536 32,000  Level Washington Center
Tue 06:37:55 AM 37.3417 -79.8786 227° Southwest 466 536 32,000  Level Washington Center
Tue 06:40:23 AM 37.1253 -80.1681 227° Southwest 455 524 32,000  Level Atlanta Center
Tue 06:41:23 AM 37.0392 -80.2814 226° Southwest 455 524 32,000  Level Atlanta Center
Tue 06:42:23 AM 36.9550 -80.3944 227° Southwest 455 524 32,000  Level Atlanta Center
Tue 06:43:23 AM 36.8689 -80.5128 228° Southwest 460 529 32,000  Level Atlanta Center
Tue 06:44:23 AM 36.7744 -80.6386 227° Southwest 460 529 32,000  Level Atlanta Center
Tue 06:45:23 AM 36.6981 -80.7403 227° Southwest 460 529 32,000  Level Atlanta Center
Tue 06:46:23 AM 36.6033 -80.8683 227° Southwest 455 524 32,000  Level Atlanta Center
Tue 06:47:23 AM 36.5167 -80.9828 227° Southwest 460 529 32,000  Level Atlanta Center
Tue 06:48:23 AM 36.4317 -81.0944 227° Southwest 454 522 32,000  Level Atlanta Center
Tue 06:49:23 AM 36.3447 -81.2086 227° Southwest 460 529 32,000  Level Atlanta Center
Tue 06:50:23 AM 36.2575 -81.3222 226° Southwest 460 529 32,000  Level Atlanta Center
Tue 06:51:23 AM 36.1706 -81.4383 227° Southwest 465 535 32,000  Level Atlanta Center
Tue 06:52:23 AM 36.0831 -81.5517 226° Southwest 460 529 32,000  Level Atlanta Center
Tue 06:53:23 AM 35.9978 -81.6619 226° Southwest 454 522 32,000  Level Atlanta Center
Tue 06:54:23 AM 35.9122 -81.7747 227° Southwest 459 528 32,000  Level Atlanta Center
Tue 06:55:23 AM 35.8247 -81.8900 227° Southwest 459 528 32,000  Level Atlanta Center
Tue 06:56:23 AM 35.7328 -82.0025 225° Southwest 459 528 32,000  Level Atlanta Center
Tue 06:57:23 AM 35.6489 -82.1119 227° Southwest 452 520 32,000  Level Atlanta Center
Tue 06:58:23 AM 35.5589 -82.2236 225° Southwest 458 527 32,000 -100 Level Atlanta Center
Tue 06:59:23 AM 35.4728 -82.3328 226° Southwest 458 527 31,800 -650 Descending Atlanta Center
Tue 07:00:23 AM 35.3781 -82.4367 222° Southwest 458 527 30,700 -1,050 Descending Atlanta Center
Tue 07:01:23 AM 35.2981 -82.5297 224° Southwest 453 521 29,700 -1,400 Descending Atlanta Center
Tue 07:02:23 AM 35.1928 -82.6436 221° Southwest 453 521 27,900 -1,650 Descending Atlanta Center
Tue 07:03:23 AM 35.0958 -82.7467 221° Southwest 465 535 26,400 -1,140 Descending Atlanta Center
Tue 07:04:24 AM 34.9989 -82.8547 222° Southwest 471 542 25,600 -942 Descending Atlanta Center
Tue 07:05:24 AM 34.9019 -82.9547 220° Southwest 466 536 24,500 -1,008 Descending Atlanta Center
Tue 07:06:23 AM 34.8089 -83.0622 224° Southwest 459 528 23,600 -807 Descending Atlanta Center
Tue 07:07:23 AM 34.7178 -83.1644 223° Southwest 459 528 22,900 -694 Descending Atlanta Center
Tue 07:08:24 AM 34.6244 -83.2664 222° Southwest 459 528 22,200 -694 Descending Atlanta Center
Tue 07:09:24 AM 34.5311 -83.3681 222° Southwest 453 521 21,500 -706 Descending Atlanta Center
Tue 07:10:23 AM 34.4442 -83.4619 222° Southwest 442 509 20,800 -1,650 Descending Atlanta Center
Tue 07:11:24 AM 34.3569 -83.5556 222° Southwest 429 494 18,200 -2,430 Descending Atlanta Center
Tue 07:12:24 AM 34.2736 -83.6442 221° Southwest 414 476 15,900 -2,400 Descending Atlanta Center
Tue 07:13:24 AM 34.1947 -83.7300 222° Southwest 403 464 13,400 -1,900 Descending Atlanta Center
Tue 07:14:24 AM 34.1281 -83.8031 222° Southwest 380 437 12,100 -807 Descending Atlanta Center
Tue 07:15:23 AM 34.0614 -83.8733 221° Southwest 344 396 11,800 -679 Descending Atlanta Center
Tue 07:16:10 AM 34.0167 -83.9333 228° Southwest 291 335 10,900 -1,178 Descending Atlanta TRACON
Tue 07:17:10 AM 33.9500 -83.9833 212° Southwest 276 318 9,700 -1,000 Descending Atlanta TRACON
Tue 07:18:04 AM 33.8833 -84.0000 192° South 254 292 9,000 -368 Descending Atlanta TRACON
Tue 07:19:04 AM 33.8167 -84.0000 180° South 244 281 9,000 -350 Level Atlanta TRACON
Tue 07:20:04 AM 33.7500 -84.0167 192° South 239 275 8,300 -1,053 Descending Atlanta TRACON
Tue 07:20:58 AM 33.7000 -84.0333 195° South 230 265 7,000 -1,211 Descending Atlanta TRACON
Tue 07:21:58 AM 33.6500 -84.0833 220° Southwest 218 251 6,000 -842 Descending Atlanta TRACON
Tue 07:22:52 AM 33.6500 -84.1500 270° West 223 257 5,400 -667 Descending Atlanta TRACON

Login

Don't have an account? Register now (free) for customized features, flight alerts, and more!